Terminal Aerodrome Forecast
Issued by NWS

Home | Current Version | Previous Version | Text Only | Print | Product List | Glossary On
Versions: 1 2 3 4 5 6 7 8 9 10 11 12 13 14
000
FTUS42 KFFC 291121
TAFFTY
TAF
KFTY 291121Z 2912/3012 06004KT P6SM SCT050
     FM291400 07007KT P6SM SCT030
     FM291800 06010G17KT P6SM SCT050
     FM292300 07005KT P6SM SCT150=

USA.gov is the U.S. government's official web portal to all federal, state and local government web resources and services.